createdAt,value
2022-11-14T00:01:35.172Z,9.68
2022-11-14T00:04:24.292Z,9.82
2022-11-14T00:07:12.492Z,9.60
2022-11-14T00:09:57.991Z,9.39
2022-11-14T00:12:43.290Z,9.46
2022-11-14T00:15:28.443Z,9.69
2022-11-14T00:18:14.518Z,10.09
2022-11-14T00:20:59.717Z,10.08
2022-11-14T00:23:45.223Z,10.03
2022-11-14T00:26:30.671Z,10.10
2022-11-14T00:29:16.098Z,9.96
2022-11-14T00:32:01.465Z,10.02
2022-11-14T00:34:47.279Z,9.92
2022-11-14T00:37:32.437Z,10.28
2022-11-14T00:40:18.078Z,10.38
2022-11-14T00:43:03.415Z,10.21
2022-11-14T00:45:49.345Z,10.34
2022-11-14T00:48:35.263Z,10.07
2022-11-14T00:51:20.715Z,10.22
2022-11-14T00:54:06.171Z,10.22
2022-11-14T00:56:52.217Z,10.35
2022-11-14T00:59:37.676Z,10.38
2022-11-14T01:02:23.786Z,10.23
2022-11-14T01:05:09.093Z,10.02
2022-11-14T01:07:54.678Z,9.93
2022-11-14T01:10:45.334Z,9.94
2022-11-14T01:13:32.237Z,10.12
2022-11-14T01:16:17.524Z,10.01
2022-11-14T01:19:03.528Z,9.82
2022-11-14T01:21:48.984Z,9.72
2022-11-14T01:24:34.902Z,9.75
2022-11-14T01:27:20.663Z,9.40
2022-11-14T01:30:06.883Z,9.24
2022-11-14T01:32:52.137Z,9.12
2022-11-14T01:35:38.465Z,9.06
2022-11-14T01:38:23.732Z,9.10
2022-11-14T01:41:10.423Z,9.04
2022-11-14T01:43:55.726Z,9.17
2022-11-14T01:46:42.714Z,9.16
2022-11-14T01:49:39.210Z,9.19
2022-11-14T01:52:32.308Z,9.00
2022-11-14T01:55:17.796Z,9.00
2022-11-14T01:58:03.354Z,8.93
2022-11-14T02:00:48.360Z,8.97
2022-11-14T02:03:36.426Z,9.06
2022-11-14T02:06:23.713Z,8.90
2022-11-14T02:09:08.896Z,9.05
2022-11-14T02:11:55.463Z,9.23
2022-11-14T02:14:41.792Z,9.08
2022-11-14T02:17:30.120Z,9.16
2022-11-14T02:20:20.414Z,9.30
2022-11-14T02:23:05.644Z,9.07
2022-11-14T02:25:50.980Z,8.93
2022-11-14T02:28:36.658Z,9.04
2022-11-14T02:31:22.336Z,8.92
2022-11-14T02:34:07.772Z,8.83
2022-11-14T02:36:53.407Z,8.70
2022-11-14T02:39:39.117Z,8.65
2022-11-14T02:42:24.769Z,8.53
2022-11-14T02:45:11.043Z,8.67
2022-11-14T02:47:56.761Z,8.96
2022-11-14T02:50:42.054Z,9.03
2022-11-14T02:53:27.574Z,9.12
2022-11-14T02:56:13.065Z,9.40
2022-11-14T02:58:58.344Z,9.62
2022-11-14T03:01:43.977Z,9.60
2022-11-14T03:04:29.663Z,9.60
2022-11-14T03:07:15.013Z,9.39
2022-11-14T03:10:00.365Z,9.40
2022-11-14T03:12:45.897Z,9.40
2022-11-14T03:15:31.265Z,9.28
2022-11-14T03:18:16.745Z,9.18
2022-11-14T03:21:10.108Z,9.05
2022-11-14T03:23:55.379Z,8.73
2022-11-14T03:26:40.835Z,8.68
2022-11-14T03:29:26.408Z,8.79
2022-11-14T03:32:11.631Z,8.62
2022-11-14T03:34:57.367Z,8.61
2022-11-14T03:37:42.512Z,8.54
2022-11-14T03:40:28.183Z,8.63
2022-11-14T03:43:13.193Z,8.69
2022-11-14T03:46:00.584Z,8.61
2022-11-14T03:48:45.846Z,8.66
2022-11-14T03:51:31.515Z,8.54
2022-11-14T03:54:16.541Z,8.49
2022-11-14T03:57:02.116Z,8.54
2022-11-14T03:59:47.404Z,8.83
2022-11-14T04:02:33.105Z,9.14
2022-11-14T04:05:18.346Z,9.05
2022-11-14T04:08:07.527Z,8.66
2022-11-14T04:10:52.791Z,8.57
2022-11-14T04:13:38.248Z,8.55
2022-11-14T04:16:23.570Z,8.65
2022-11-14T04:19:08.875Z,8.44
2022-11-14T04:21:54.784Z,8.33
2022-11-14T04:24:40.197Z,8.41
2022-11-14T04:27:25.585Z,8.51
2022-11-14T04:30:11.822Z,8.40
2022-11-14T04:32:56.948Z,8.47
2022-11-14T04:35:42.284Z,8.34
2022-11-14T04:38:28.159Z,8.27
2022-11-14T04:41:14.049Z,8.37
2022-11-14T04:43:59.454Z,8.61
2022-11-14T04:46:45.086Z,8.49
2022-11-14T04:49:35.441Z,8.26
2022-11-14T04:52:20.582Z,8.04
2022-11-14T04:55:06.116Z,8.12
2022-11-14T04:57:56.044Z,7.94
2022-11-14T05:00:41.322Z,7.86
2022-11-14T05:03:26.796Z,7.99
2022-11-14T05:06:12.337Z,8.17
2022-11-14T05:08:57.988Z,8.13
2022-11-14T05:11:43.261Z,8.16
2022-11-14T05:14:28.620Z,7.94
2022-11-14T05:17:14.019Z,7.87
2022-11-14T05:19:59.809Z,7.76
2022-11-14T05:22:45.134Z,7.68
2022-11-14T05:25:30.622Z,7.64
2022-11-14T05:28:16.206Z,7.54
2022-11-14T05:31:06.621Z,7.49
2022-11-14T05:33:52.746Z,7.65
2022-11-14T05:36:38.099Z,7.77
2022-11-14T05:39:23.482Z,7.77
2022-11-14T05:42:08.735Z,7.82
2022-11-14T05:44:54.232Z,7.67
2022-11-14T05:47:39.552Z,7.64
2022-11-14T05:50:25.234Z,7.56
2022-11-14T05:53:10.484Z,7.61
2022-11-14T05:55:55.844Z,7.81
2022-11-14T05:58:41.911Z,7.87
2022-11-14T06:01:28.141Z,7.96
2022-11-14T06:04:15.239Z,7.92
2022-11-14T06:07:00.738Z,7.87
2022-11-14T06:09:46.483Z,7.59
2022-11-14T06:12:32.807Z,7.66
2022-11-14T06:15:17.971Z,7.70
2022-11-14T06:18:03.524Z,7.64
2022-11-14T06:20:49.391Z,7.62
2022-11-14T06:23:34.653Z,7.76
2022-11-14T06:26:27.068Z,7.69
2022-11-14T06:29:12.975Z,7.51
2022-11-14T06:31:58.203Z,7.43
2022-11-14T06:34:44.460Z,7.61
2022-11-14T06:37:33.547Z,7.71
2022-11-14T06:40:19.342Z,7.84
2022-11-14T06:43:04.721Z,7.81
2022-11-14T06:45:55.056Z,7.87
2022-11-14T06:48:41.710Z,8.00
2022-11-14T06:51:27.121Z,7.86
2022-11-14T06:54:12.915Z,7.65
2022-11-14T06:56:58.335Z,7.78
2022-11-14T06:59:43.855Z,7.95
2022-11-14T07:02:29.148Z,7.84
2022-11-14T07:05:15.908Z,7.77
2022-11-14T07:08:01.675Z,7.86
2022-11-14T07:10:47.408Z,7.55
2022-11-14T07:13:33.600Z,7.71
2022-11-14T07:16:19.999Z,7.39
2022-11-14T07:19:09.960Z,7.48
2022-11-14T07:22:01.960Z,7.38
2022-11-14T07:24:47.367Z,7.45
2022-11-14T07:27:32.971Z,7.36
2022-11-14T07:30:18.487Z,7.19
2022-11-14T07:33:03.831Z,7.34
2022-11-14T07:35:51.160Z,7.57
2022-11-14T07:38:42.859Z,7.65
2022-11-14T07:41:28.598Z,7.78
2022-11-14T07:44:14.061Z,7.80
2022-11-14T07:46:59.785Z,7.86
2022-11-14T07:49:45.297Z,7.92
2022-11-14T07:52:31.588Z,7.94
2022-11-14T07:55:17.024Z,8.00
2022-11-14T07:58:02.770Z,7.84
2022-11-14T08:00:52.012Z,7.95
2022-11-14T08:03:42.290Z,7.94
2022-11-14T08:06:36.020Z,8.01
2022-11-14T08:09:23.236Z,8.17
2022-11-14T08:12:09.101Z,8.20
2022-11-14T08:14:54.840Z,9.18
2022-11-14T08:17:40.502Z,11.05
2022-11-14T08:20:26.938Z,13.46
2022-11-14T08:23:12.336Z,14.80
2022-11-14T08:25:59.250Z,15.64
2022-11-14T08:28:44.538Z,13.29
2022-11-14T08:31:29.954Z,11.72
2022-11-14T08:34:15.661Z,10.69
2022-11-14T08:37:01.528Z,10.24
2022-11-14T08:39:47.222Z,10.30
2022-11-14T08:42:33.083Z,9.83
2022-11-14T08:45:18.517Z,9.76
2022-11-14T08:48:03.716Z,9.76
2022-11-14T08:50:49.171Z,9.81
2022-11-14T08:53:34.556Z,9.96
2022-11-14T08:56:19.877Z,9.87
2022-11-14T08:59:05.268Z,10.06
2022-11-14T09:01:50.608Z,10.19
2022-11-14T09:04:36.064Z,10.08
2022-11-14T09:07:22.026Z,10.09
2022-11-14T09:10:08.096Z,10.01
2022-11-14T09:13:00.654Z,9.90
2022-11-14T09:15:46.384Z,10.01
2022-11-14T09:18:32.197Z,10.14
2022-11-14T09:21:17.763Z,10.32
2022-11-14T09:24:03.358Z,10.57
2022-11-14T09:26:55.209Z,10.51
2022-11-14T09:29:42.533Z,10.49
2022-11-14T09:32:28.088Z,10.84
2022-11-14T09:35:13.585Z,10.27
2022-11-14T09:38:04.633Z,10.79
2022-11-14T09:41:08.773Z,11.21
2022-11-14T09:44:03.570Z,11.23
2022-11-14T09:46:57.609Z,10.91
2022-11-14T09:49:45.058Z,10.90
2022-11-14T09:52:45.136Z,10.71
2022-11-14T09:55:37.233Z,10.80
2022-11-14T09:58:23.564Z,10.89
2022-11-14T10:01:29.390Z,11.09
2022-11-14T10:04:49.313Z,10.63
2022-11-14T10:08:03.891Z,10.59
2022-11-14T10:11:00.171Z,10.47
2022-11-14T10:13:51.658Z,10.68
2022-11-14T10:16:43.811Z,11.09
2022-11-14T10:19:42.857Z,10.80
2022-11-14T10:22:40.865Z,10.62
2022-11-14T10:25:32.114Z,10.82
2022-11-14T10:28:41.206Z,10.89
2022-11-14T10:31:35.775Z,11.13
2022-11-14T10:34:32.076Z,10.89
2022-11-14T10:37:24.134Z,11.21
2022-11-14T10:40:27.063Z,11.07
2022-11-14T10:43:18.562Z,11.25
2022-11-14T10:46:10.725Z,11.17
2022-11-14T10:49:00.017Z,11.03
2022-11-14T10:51:50.637Z,11.45
2022-11-14T10:54:46.883Z,11.36
2022-11-14T10:57:32.945Z,11.45
2022-11-14T11:00:25.261Z,11.28
2022-11-14T11:03:10.860Z,11.39
2022-11-14T11:05:59.464Z,11.21
2022-11-14T11:09:03.772Z,11.23
2022-11-14T11:11:56.286Z,10.81
2022-11-14T11:14:41.778Z,9.91
2022-11-14T11:17:34.105Z,10.34
2022-11-14T11:21:01.316Z,9.80
2022-11-14T11:23:52.683Z,9.99
2022-11-14T11:26:38.032Z,10.23
2022-11-14T11:29:23.601Z,10.27
2022-11-14T11:32:10.219Z,10.70
2022-11-14T11:34:57.683Z,9.86
2022-11-14T11:37:46.762Z,9.95
2022-11-14T11:40:32.203Z,10.41
2022-11-14T11:43:41.855Z,10.45
2022-11-14T11:46:49.105Z,9.87
2022-11-14T11:49:53.277Z,9.97
2022-11-14T11:52:48.636Z,10.29
2022-11-14T11:55:38.268Z,9.87
2022-11-14T11:58:31.840Z,9.86
2022-11-14T12:01:17.595Z,9.44
2022-11-14T12:04:04.172Z,9.39
2022-11-14T12:07:10.973Z,9.24
2022-11-14T12:10:10.596Z,10.10
2022-11-14T12:13:14.772Z,10.39
2022-11-14T12:16:23.851Z,10.01
2022-11-14T12:19:21.505Z,10.54
2022-11-14T12:22:25.423Z,10.42
2022-11-14T12:25:26.358Z,9.95
2022-11-14T12:28:40.032Z,9.75
2022-11-14T12:31:29.509Z,9.74
2022-11-14T12:34:26.301Z,9.93
2022-11-14T12:37:16.993Z,10.01
2022-11-14T12:40:06.542Z,10.00
2022-11-14T12:42:58.326Z,9.99
2022-11-14T12:45:55.986Z,9.86
2022-11-14T12:48:48.077Z,10.29
2022-11-14T12:51:33.880Z,9.91
2022-11-14T13:01:31.063Z,9.83
2022-11-14T13:04:39.371Z,10.15
2022-11-14T13:07:40.379Z,9.79
2022-11-14T13:10:31.183Z,10.10
2022-11-14T13:13:35.806Z,10.22
2022-11-14T13:16:45.474Z,10.65
2022-11-14T13:19:49.732Z,10.13
2022-11-14T13:22:45.393Z,10.34
2022-11-14T13:25:31.548Z,10.64
2022-11-14T13:28:38.818Z,9.54
2022-11-14T13:31:27.065Z,9.67
2022-11-14T13:34:40.942Z,9.68
2022-11-14T13:37:37.781Z,10.04
2022-11-14T13:40:38.253Z,9.80
2022-11-14T13:43:57.542Z,9.99
2022-11-14T13:47:05.358Z,10.55
2022-11-14T13:50:04.847Z,10.65
2022-11-14T13:52:50.647Z,10.38
2022-11-14T13:55:45.395Z,10.00
2022-11-14T13:58:46.275Z,10.26
2022-11-14T14:02:12.942Z,10.10
2022-11-14T14:05:14.448Z,9.94
2022-11-14T14:08:11.645Z,10.42
2022-11-14T14:11:16.148Z,10.58
2022-11-14T14:14:32.352Z,11.09
2022-11-14T14:17:33.614Z,10.86
2022-11-14T14:20:37.965Z,10.12
2022-11-14T14:23:42.245Z,9.94
2022-11-14T14:26:55.827Z,9.78
2022-11-14T14:30:03.724Z,10.29
2022-11-14T14:33:11.515Z,10.28
2022-11-14T14:35:56.757Z,9.98
2022-11-14T14:38:42.141Z,10.17
2022-11-14T14:41:31.531Z,10.31
2022-11-14T14:44:32.087Z,10.53
2022-11-14T14:47:28.578Z,9.93
2022-11-14T14:50:23.298Z,9.97
2022-11-14T14:53:26.603Z,9.97
2022-11-14T14:56:21.155Z,10.01
2022-11-14T14:59:21.120Z,10.18
2022-11-14T15:02:14.220Z,10.42
2022-11-14T15:05:00.388Z,10.46
2022-11-14T15:07:59.287Z,10.49
2022-11-14T15:10:45.835Z,10.77
2022-11-14T15:13:32.469Z,10.82
2022-11-14T15:16:18.751Z,10.74
2022-11-14T15:19:07.698Z,10.91
2022-11-14T15:22:19.003Z,10.92
2022-11-14T15:25:22.727Z,11.51
2022-11-14T15:28:22.036Z,10.75
2022-11-14T15:31:12.981Z,10.95
2022-11-14T15:34:24.343Z,11.07
2022-11-14T15:37:40.550Z,11.18
2022-11-14T15:40:26.499Z,11.40
2022-11-14T15:43:42.902Z,11.27
2022-11-14T15:46:37.238Z,10.91
2022-11-14T15:49:24.707Z,11.12
2022-11-14T15:52:40.931Z,11.24
2022-11-14T15:55:26.811Z,10.70
2022-11-14T15:58:27.884Z,10.87
2022-11-14T16:01:18.370Z,11.19
2022-11-14T16:04:04.168Z,11.19
2022-11-14T16:06:49.668Z,10.82
2022-11-14T16:09:35.134Z,10.56
2022-11-14T16:12:20.799Z,10.74
2022-11-14T16:15:07.067Z,10.89
2022-11-14T16:17:52.953Z,11.39
2022-11-14T16:20:39.838Z,10.90
2022-11-14T16:23:25.412Z,10.95
2022-11-14T16:26:10.812Z,11.09
2022-11-14T16:32:16.599Z,11.60
2022-11-14T16:35:02.574Z,11.89
2022-11-14T16:37:48.758Z,11.24
2022-11-14T16:40:35.751Z,11.84
2022-11-14T16:43:21.757Z,11.37
2022-11-14T16:46:10.290Z,11.49
2022-11-14T16:48:58.574Z,11.29
2022-11-14T16:51:49.580Z,11.32
2022-11-14T16:54:35.751Z,11.40
2022-11-14T16:57:21.581Z,10.98
2022-11-14T17:00:09.476Z,11.80
2022-11-14T17:02:56.656Z,11.40
2022-11-14T17:05:47.310Z,11.92
2022-11-14T17:08:32.981Z,11.92
2022-11-14T17:11:18.617Z,12.37
2022-11-14T17:14:07.855Z,12.18
2022-11-14T17:17:05.382Z,12.06
2022-11-14T17:19:52.166Z,12.22
2022-11-14T17:22:37.694Z,11.58
2022-11-14T17:25:23.517Z,11.58
2022-11-14T17:31:08.280Z,11.50
2022-11-14T17:33:58.113Z,11.53
2022-11-14T17:42:43.205Z,11.67
2022-11-14T17:45:28.762Z,11.02
2022-11-14T17:48:14.079Z,11.26
2022-11-14T17:51:11.462Z,11.65
2022-11-14T17:54:00.012Z,11.52
2022-11-14T18:00:05.476Z,11.74
2022-11-14T18:02:51.353Z,12.21
2022-11-14T18:05:36.763Z,11.57
2022-11-14T18:08:22.080Z,11.32
2022-11-14T18:11:11.514Z,11.58
2022-11-14T18:14:08.519Z,11.88
2022-11-14T18:17:12.299Z,11.67
2022-11-14T18:20:07.893Z,11.85
2022-11-14T18:22:53.976Z,11.85
2022-11-14T18:25:41.954Z,11.90
2022-11-14T18:28:27.383Z,11.54
2022-11-14T18:31:13.447Z,11.48
2022-11-14T18:33:58.626Z,11.59
2022-11-14T18:36:46.929Z,11.71
2022-11-14T18:39:32.618Z,12.06
2022-11-14T18:42:18.357Z,11.88
2022-11-14T18:45:04.070Z,11.82
2022-11-14T18:47:49.205Z,11.76
2022-11-14T18:50:34.792Z,11.71
2022-11-14T18:53:21.444Z,11.64
2022-11-14T18:56:10.437Z,11.48
2022-11-14T18:58:56.986Z,11.44
2022-11-14T19:01:42.384Z,11.69
2022-11-14T19:04:28.150Z,11.78
2022-11-14T19:07:16.434Z,12.18
2022-11-14T19:10:02.426Z,11.88
2022-11-14T19:12:48.675Z,12.00
2022-11-14T19:15:34.672Z,12.31
2022-11-14T19:18:20.451Z,12.05
2022-11-14T19:21:06.247Z,11.98
2022-11-14T19:23:51.504Z,12.22
2022-11-14T19:26:37.040Z,11.83
2022-11-14T19:29:22.781Z,12.24
2022-11-14T19:32:09.345Z,12.30
2022-11-14T19:35:23.760Z,12.27
2022-11-14T19:38:38.235Z,11.88
2022-11-14T19:41:27.913Z,12.16
2022-11-14T19:44:13.251Z,12.04
2022-11-14T19:46:58.833Z,12.18
2022-11-14T19:49:44.415Z,12.28
2022-11-14T19:52:30.283Z,12.35
2022-11-14T19:55:17.554Z,12.55
2022-11-14T19:58:03.251Z,12.20
2022-11-14T20:01:07.603Z,12.25
2022-11-14T20:04:07.958Z,12.48
2022-11-14T20:06:57.998Z,12.29
2022-11-14T20:09:43.606Z,12.71
2022-11-14T20:12:30.384Z,12.81
2022-11-14T20:15:21.577Z,13.02
2022-11-14T20:18:07.048Z,12.90
2022-11-14T20:20:52.961Z,12.91
2022-11-14T20:23:38.208Z,12.86
2022-11-14T20:26:24.430Z,13.04
2022-11-14T20:29:30.801Z,13.03
2022-11-14T20:32:16.544Z,13.28
2022-11-14T20:35:02.623Z,12.80
2022-11-14T20:37:48.591Z,12.61
2022-11-14T20:40:34.260Z,12.80
2022-11-14T20:43:19.961Z,13.06
2022-11-14T20:46:12.382Z,12.81
2022-11-14T20:48:57.990Z,13.13
2022-11-14T20:51:43.836Z,13.04
2022-11-14T20:54:29.620Z,13.05
2022-11-14T20:57:14.884Z,13.29
2022-11-14T21:00:00.974Z,13.36
2022-11-14T21:02:46.625Z,13.04
2022-11-14T21:05:31.852Z,13.27
2022-11-14T21:08:17.446Z,13.22
2022-11-14T21:11:08.974Z,13.29
2022-11-14T21:13:57.006Z,13.42
2022-11-14T21:16:42.154Z,13.63
2022-11-14T21:19:29.326Z,13.63
2022-11-14T21:22:15.194Z,13.67
2022-11-14T21:25:01.893Z,13.55
2022-11-14T21:27:47.467Z,13.56
2022-11-14T21:30:45.674Z,13.41
2022-11-14T21:33:33.209Z,13.57
2022-11-14T21:36:43.683Z,13.65
2022-11-14T21:39:26.038Z,13.67
2022-11-14T21:42:15.629Z,13.43
2022-11-14T21:45:03.920Z,13.29
2022-11-14T21:47:49.482Z,13.23
2022-11-14T21:50:34.919Z,13.35
2022-11-14T21:53:20.351Z,13.49
2022-11-14T21:56:17.637Z,13.50
2022-11-14T21:59:15.042Z,13.35
2022-11-14T22:02:19.173Z,13.42
2022-11-14T22:05:04.683Z,13.26
2022-11-14T22:07:50.705Z,13.23
2022-11-14T22:10:36.100Z,13.20
2022-11-14T22:13:21.372Z,13.03
2022-11-14T22:16:11.361Z,13.25
2022-11-14T22:19:02.038Z,13.06
2022-11-14T22:21:50.663Z,13.00
2022-11-14T22:24:36.234Z,13.25
2022-11-14T22:27:21.726Z,13.11
2022-11-14T22:30:07.656Z,13.16
2022-11-14T22:33:01.804Z,13.16
2022-11-14T22:35:47.314Z,13.17
2022-11-14T22:38:33.708Z,13.27
2022-11-14T22:41:21.220Z,13.34
2022-11-14T22:44:06.648Z,13.32
2022-11-14T22:46:52.141Z,13.52
2022-11-14T22:49:41.092Z,13.39
2022-11-14T22:52:26.684Z,13.55
2022-11-14T22:55:17.823Z,13.45
2022-11-14T22:58:04.224Z,13.56
2022-11-14T23:00:50.350Z,13.41
2022-11-14T23:03:36.340Z,13.65
2022-11-14T23:06:23.035Z,13.70
2022-11-14T23:09:08.626Z,13.60
2022-11-14T23:11:54.040Z,13.63
2022-11-14T23:14:39.319Z,14.00
2022-11-14T23:17:27.223Z,13.98
2022-11-14T23:20:16.229Z,14.10
2022-11-14T23:23:02.132Z,14.18
2022-11-14T23:25:48.029Z,14.32
2022-11-14T23:28:33.514Z,14.27
2022-11-14T23:31:19.475Z,14.36
2022-11-14T23:34:05.037Z,14.03
2022-11-14T23:36:50.352Z,14.20
2022-11-14T23:39:36.014Z,14.38
2022-11-14T23:42:21.298Z,14.23
2022-11-14T23:45:07.396Z,14.12
2022-11-14T23:47:53.088Z,13.98
2022-11-14T23:50:38.345Z,14.42
2022-11-14T23:53:24.280Z,14.16
2022-11-14T23:56:13.245Z,14.13
2022-11-14T23:58:58.844Z,14.39
